Time;durP1;ratioP1;P1;durP2;ratioP2;P2;SDS_P1;SDS_P2;PMS_P1;PMS_P2;Temp;Humidity;BMP_temperature;BMP_pressure;BME280_temperature;BME280_humidity;BME280_pressure;Samples;Min_cycle;Max_cycle;Signal;HPM_P1;HPM_P2
2021/12/14 00:01:22;;;;;;;17.65;9.45;;;8.30;99.90;;;;;;5030877;28;20021;-66
2021/12/14 00:03:54;;;;;;;17.33;9.15;;;8.20;99.90;;;;;;5048142;28;20095;-66
2021/12/14 00:06:21;;;;;;;19.70;9.02;;;8.30;99.90;;;;;;5031253;28;20024;-66
2021/12/14 00:09:08;;;;;;;19.95;9.13;;;8.30;99.90;;;;;;5048475;28;20458;-67
2021/12/14 00:16:48;;;;;;;18.40;8.07;;;8.30;99.90;;;;;;5049299;28;20017;-66
2021/12/14 00:19:15;;;;;;;19.50;8.68;;;8.30;99.90;;;;;;5030991;28;20031;-66
2021/12/14 00:21:48;;;;;;;21.23;9.20;;;8.30;99.90;;;;;;5047762;28;20021;-66
2021/12/14 00:24:15;;;;;;;16.90;8.00;;;8.20;99.90;;;;;;5048917;28;20025;-68
2021/12/14 00:26:48;;;;;;;18.02;8.52;;;8.30;99.90;;;;;;5049439;28;20035;-67
2021/12/14 00:29:18;;;;;;;17.45;8.77;;;8.20;99.90;;;;;;5050466;28;20032;-71
2021/12/14 00:31:44;;;;;;;17.98;9.10;;;8.20;99.90;;;;;;5054049;28;20036;-70
2021/12/14 00:34:10;;;;;;;19.67;9.27;;;8.20;99.90;;;;;;5038066;28;20055;-71
2021/12/14 00:36:38;;;;;;;17.83;8.85;;;8.30;99.90;;;;;;5038063;28;20021;-71
2021/12/14 00:39:07;;;;;;;17.35;8.68;;;8.30;99.90;;;;;;5037850;28;20029;-74
2021/12/14 00:41:37;;;;;;;18.27;9.18;;;8.30;99.90;;;;;;5055425;28;20047;-68
2021/12/14 00:44:04;;;;;;;16.67;8.38;;;8.30;99.90;;;;;;5038392;28;20829;-73
2021/12/14 00:46:30;;;;;;;18.85;9.40;;;8.30;99.90;;;;;;5056103;28;20032;-71
2021/12/14 00:48:56;;;;;;;17.63;8.55;;;8.30;99.90;;;;;;5055723;28;20025;-71
2021/12/14 00:51:27;;;;;;;18.90;9.50;;;8.30;99.90;;;;;;5037865;28;20079;-70
2021/12/14 00:53:54;;;;;;;18.95;10.20;;;8.30;99.90;;;;;;5054882;28;20029;-71
2021/12/14 00:56:19;;;;;;;19.45;9.80;;;8.30;99.90;;;;;;5055536;28;20091;-71
2021/12/14 00:58:45;;;;;;;16.98;8.68;;;8.30;99.90;;;;;;5055576;28;20025;-71
2021/12/14 01:01:14;;;;;;;18.08;9.05;;;8.30;99.90;;;;;;5055596;28;20028;-71
2021/12/14 01:03:43;;;;;;;17.08;8.73;;;8.30;99.90;;;;;;5036832;28;20028;-71
2021/12/14 01:06:11;;;;;;;19.50;8.77;;;8.30;99.90;;;;;;5037607;28;20025;-70
2021/12/14 01:08:40;;;;;;;18.13;9.55;;;8.20;99.90;;;;;;5037568;28;20485;-71
2021/12/14 01:11:11;;;;;;;;;;;8.20;99.90;;;;;;5055777;28;20068;-71
2021/12/14 01:13:43;;;;;;;19.52;9.55;;;8.30;99.90;;;;;;5055337;28;19952;-71
2021/12/14 01:16:18;;;;;;;20.17;10.65;;;8.20;99.90;;;;;;5055124;28;20029;-70
2021/12/14 01:19:02;;;;;;;19.98;9.48;;;8.30;99.90;;;;;;5055194;28;20111;-70
2021/12/14 01:24:22;;;;;;;20.73;10.05;;;8.20;99.90;;;;;;5122635;23;20139;-69
2021/12/14 01:26:48;;;;;;;18.17;9.55;;;8.30;99.90;;;;;;5076460;28;20514;-68
2021/12/14 01:29:16;;;;;;;20.30;10.18;;;8.20;99.90;;;;;;5076337;28;20181;-69
2021/12/14 01:31:43;;;;;;;18.27;9.13;;;8.20;99.90;;;;;;5075656;28;20497;-69
2021/12/14 01:34:16;;;;;;;21.48;9.60;;;8.20;99.90;;;;;;5094359;28;20031;-68
2021/12/14 01:36:47;;;;;;;21.02;9.82;;;8.30;99.90;;;;;;5076422;28;20408;-67
2021/12/14 01:39:48;;;;;;;19.42;9.82;;;8.20;99.90;;;;;;5076163;28;20040;-69
2021/12/14 01:42:18;;;;;;;18.75;9.68;;;8.20;99.90;;;;;;5092845;28;20028;-71
2021/12/14 01:45:00;;;;;;;19.23;9.25;;;8.20;99.90;;;;;;5094300;28;20043;-70
2021/12/14 01:47:40;;;;;;;18.17;9.68;;;8.20;99.90;;;;;;5094216;28;20055;-69
2021/12/14 01:50:13;;;;;;;20.40;10.65;;;8.20;99.90;;;;;;5075965;28;20024;-69
2021/12/14 01:52:39;;;;;;;20.48;9.68;;;8.20;99.90;;;;;;5093208;28;20024;-68
2021/12/14 01:55:19;;;;;;;20.05;9.73;;;8.20;99.90;;;;;;5075755;28;20031;-69
2021/12/14 01:57:46;;;;;;;19.50;10.18;;;8.10;99.90;;;;;;5094124;28;20217;-70
2021/12/14 02:00:33;;;;;;;19.60;10.02;;;8.20;99.90;;;;;;5075855;28;20441;-69
2021/12/14 02:03:01;;;;;;;18.67;10.15;;;8.10;99.90;;;;;;5093100;28;20048;-69
2021/12/14 02:05:40;;;;;;;19.88;10.13;;;8.10;99.90;;;;;;5075824;28;20028;-70
2021/12/14 02:08:17;;;;;;;20.08;9.45;;;8.20;99.90;;;;;;5075765;28;20115;-69
2021/12/14 02:10:43;;;;;;;20.65;10.00;;;8.10;99.90;;;;;;5075665;28;20020;-70
2021/12/14 02:13:09;;;;;;;19.70;10.07;;;8.10;99.90;;;;;;5074679;28;20024;-69
2021/12/14 02:15:37;;;;;;;20.13;9.10;;;8.10;99.90;;;;;;5093675;28;20067;-69
2021/12/14 02:18:11;;;;;;;18.27;8.95;;;8.10;99.90;;;;;;5093571;28;20095;-69
2021/12/14 02:20:38;;;;;;;19.25;9.38;;;8.10;99.90;;;;;;5093565;28;20016;-70
2021/12/14 02:23:06;;;;;;;18.63;9.65;;;8.10;99.90;;;;;;5092717;28;20024;-69
2021/12/14 02:25:32;;;;;;;18.88;9.93;;;8.10;99.90;;;;;;5075462;28;20119;-69
2021/12/14 02:28:02;;;;;;;18.65;8.85;;;8.10;99.90;;;;;;5093408;28;20063;-70
2021/12/14 02:30:30;;;;;;;19.02;9.82;;;8.10;99.90;;;;;;5093346;28;20476;-70
2021/12/14 02:33:11;;;;;;;19.20;9.27;;;8.00;99.90;;;;;;5074535;28;20031;-70
2021/12/14 02:35:37;;;;;;;22.67;9.95;;;8.00;99.90;;;;;;5075289;28;20115;-69
2021/12/14 02:38:08;;;;;;;18.38;9.30;;;8.00;99.90;;;;;;5074897;28;20148;-69
2021/12/14 02:40:53;;;;;;;18.38;9.85;;;8.00;99.90;;;;;;5075181;28;20028;-70
2021/12/14 02:43:38;;;;;;;18.70;9.43;;;8.00;99.90;;;;;;5093089;28;20020;-69
2021/12/14 02:46:07;;;;;;;20.52;10.48;;;8.00;99.90;;;;;;5075670;28;20031;-70
2021/12/14 02:48:33;;;;;;;19.23;9.45;;;8.00;99.90;;;;;;5074868;28;20027;-69
2021/12/14 02:51:10;;;;;;;18.58;9.20;;;8.00;99.90;;;;;;5093039;28;20028;-70
2021/12/14 02:53:37;;;;;;;17.73;8.93;;;8.00;99.90;;;;;;5073203;28;20088;-71
2021/12/14 02:56:08;;;;;;;20.83;10.27;;;8.00;99.90;;;;;;5074608;28;20484;-70
2021/12/14 02:58:34;;;;;;;18.55;9.65;;;8.00;99.90;;;;;;5092601;28;20024;-69
2021/12/14 03:01:01;;;;;;;19.88;10.13;;;8.00;99.90;;;;;;5092683;28;20020;-69
2021/12/14 03:03:27;;;;;;;18.65;9.80;;;8.00;99.90;;;;;;5073682;28;20024;-69
2021/12/14 03:05:53;;;;;;;17.55;9.07;;;8.00;99.90;;;;;;5074485;28;20365;-69
2021/12/14 03:08:24;;;;;;;21.30;10.52;;;8.00;99.90;;;;;;5092582;28;20634;-69
2021/12/14 03:11:10;;;;;;;20.52;8.98;;;8.00;99.90;;;;;;5092572;28;20480;-70
2021/12/14 03:13:43;;;;;;;20.83;9.77;;;8.10;99.90;;;;;;5073665;28;20054;-69
2021/12/14 03:16:15;;;;;;;18.85;9.80;;;8.00;99.90;;;;;;5092480;28;20035;-69
2021/12/14 03:18:43;;;;;;;20.95;10.05;;;8.00;99.90;;;;;;5074309;28;20491;-69
2021/12/14 03:21:13;;;;;;;18.63;9.60;;;8.00;99.90;;;;;;5092339;28;20035;-69
2021/12/14 03:23:59;;;;;;;18.90;9.48;;;8.00;99.90;;;;;;5073334;28;20047;-69
2021/12/14 03:26:28;;;;;;;18.48;9.90;;;8.00;99.90;;;;;;5092398;28;20035;-69
2021/12/14 03:28:57;;;;;;;19.33;9.50;;;8.00;99.90;;;;;;5074107;28;20028;-70
2021/12/14 03:31:37;;;;;;;19.55;9.73;;;8.00;99.90;;;;;;5092316;28;20028;-69
2021/12/14 03:34:23;;;;;;;17.95;8.57;;;8.00;99.90;;;;;;5073883;28;20028;-69
2021/12/14 03:36:59;;;;;;;20.58;9.48;;;8.00;99.90;;;;;;5073886;28;20024;-69
2021/12/14 03:39:38;;;;;;;20.75;9.85;;;8.00;99.90;;;;;;5091973;28;20109;-70
2021/12/14 03:42:18;;;;;;;20.08;10.07;;;8.00;99.90;;;;;;5091438;28;20020;-69
2021/12/14 03:44:53;;;;;;;20.45;10.02;;;8.00;99.90;;;;;;5092096;28;20020;-69
2021/12/14 03:47:31;;;;;;;19.55;9.50;;;8.00;99.90;;;;;;5073901;28;20027;-70
2021/12/14 03:50:29;;;;;;;18.75;10.25;;;7.90;99.90;;;;;;5073787;28;20031;-70
2021/12/14 03:52:55;;;;;;;17.50;9.37;;;7.90;99.90;;;;;;5091189;28;20052;-69
2021/12/14 03:55:43;;;;;;;20.25;9.80;;;8.00;99.90;;;;;;5091732;28;20773;-69
2021/12/14 03:58:13;;;;;;;18.52;8.95;;;8.00;99.90;;;;;;5091486;28;20036;-70
2021/12/14 04:00:44;;;;;;;20.67;9.63;;;8.00;99.90;;;;;;5091898;28;20386;-69
2021/12/14 04:03:14;;;;;;;18.92;9.20;;;8.00;99.90;;;;;;5072986;28;20016;-68
2021/12/14 04:05:41;;;;;;;18.40;9.38;;;8.00;99.90;;;;;;5073546;28;20100;-69
2021/12/14 04:08:08;;;;;;;19.20;9.73;;;8.00;99.90;;;;;;5073729;28;20020;-69
2021/12/14 04:10:36;;;;;;;19.25;9.95;;;7.90;99.90;;;;;;5073626;28;20054;-70
2021/12/14 04:13:03;;;;;;;19.33;9.77;;;7.90;99.90;;;;;;5091184;28;20020;-68
2021/12/14 04:15:29;;;;;;;20.38;9.63;;;7.90;99.90;;;;;;5073414;28;20028;-69
2021/12/14 04:17:55;;;;;;;21.08;9.45;;;8.00;99.90;;;;;;5091707;28;20028;-69
2021/12/14 04:20:23;;;;;;;19.25;9.13;;;8.00;99.90;;;;;;5073467;28;20059;-68
2021/12/14 04:22:49;;;;;;;18.60;9.48;;;7.90;99.90;;;;;;5072737;28;20051;-69
2021/12/14 04:25:19;;;;;;;19.35;9.63;;;7.90;99.90;;;;;;5091456;28;20460;-68
2021/12/14 04:27:47;;;;;;;21.20;10.70;;;7.90;99.90;;;;;;5091455;28;20031;-68
2021/12/14 04:30:15;;;;;;;22.42;10.07;;;7.90;99.90;;;;;;5073328;28;20035;-67
2021/12/14 04:32:46;;;;;;;19.27;8.82;;;7.90;99.90;;;;;;5090718;28;20075;-68
2021/12/14 04:35:14;;;;;;;20.17;9.60;;;7.90;99.90;;;;;;5073027;28;20050;-67
2021/12/14 04:37:42;;;;;;;20.05;9.20;;;7.90;99.90;;;;;;5073141;28;20112;-68
2021/12/14 04:51:59;;;;;;;74.40;42.72;;;8.00;99.90;;;;;;5090937;28;20125;-68
2021/12/14 04:54:38;;;;;;;20.10;10.60;;;7.90;99.90;;;;;;5091256;28;20031;-68
2021/12/14 04:57:25;;;;;;;19.52;10.30;;;7.90;99.90;;;;;;5072968;28;20035;-68
2021/12/14 04:59:52;;;;;;;20.15;11.30;;;8.00;99.90;;;;;;5073092;28;20495;-71
2021/12/14 05:02:25;;;;;;;18.77;9.82;;;8.00;99.90;;;;;;5090556;28;20396;-68
2021/12/14 05:04:53;;;;;;;21.58;10.90;;;7.90;99.90;;;;;;5091053;28;20024;-69
2021/12/14 05:07:33;;;;;;;;;;;7.90;99.90;;;;;;5091554;28;20028;-69
2021/12/14 05:10:03;;;;;;;22.75;11.10;;;8.00;99.90;;;;;;5090940;28;19949;-68
2021/12/14 05:12:33;;;;;;;21.02;11.07;;;8.00;99.90;;;;;;5072273;28;20017;-69
2021/12/14 05:15:00;;;;;;;20.27;10.48;;;8.00;99.90;;;;;;5091148;28;20035;-68
2021/12/14 05:17:32;;;;;;;22.50;11.25;;;8.00;99.90;;;;;;5093449;28;20547;-69
2021/12/14 05:19:58;;;;;;;20.92;10.75;;;8.00;99.90;;;;;;5076495;28;20074;-70
2021/12/14 05:22:30;;;;;;;22.75;11.07;;;8.00;99.90;;;;;;5075557;28;20083;-70
2021/12/14 05:25:00;;;;;;;21.95;11.27;;;7.90;99.90;;;;;;5094594;28;20418;-70
2021/12/14 05:27:32;;;;;;;23.98;11.27;;;8.00;99.90;;;;;;5076533;28;20021;-70
2021/12/14 05:30:28;;;;;;;21.52;12.38;;;7.90;99.90;;;;;;5094630;28;20024;-70
2021/12/14 05:33:23;;;;;;;21.73;11.27;;;7.90;99.90;;;;;;5092083;28;20067;-70
2021/12/14 05:35:52;;;;;;;21.10;10.95;;;7.90;99.90;;;;;;5073636;28;20132;-68
2021/12/14 05:38:21;;;;;;;;;;;7.90;99.90;;;;;;5094687;28;20134;-68
2021/12/14 05:43:19;;;;;;;22.30;12.00;;;7.90;99.90;;;;;;5093375;28;20021;-69
2021/12/14 05:45:52;;;;;;;22.30;11.85;;;7.90;99.90;;;;;;5075762;28;20023;-69
2021/12/14 05:48:24;;;;;;;21.25;11.93;;;7.90;99.90;;;;;;5076193;28;20081;-69
2021/12/14 05:50:54;;;;;;;23.30;12.07;;;7.90;99.90;;;;;;5094255;28;20032;-69
2021/12/14 05:53:24;;;;;;;21.85;12.02;;;7.90;99.90;;;;;;5093091;28;20066;-69
2021/12/14 05:55:53;;;;;;;23.52;13.10;;;7.90;99.90;;;;;;5093762;28;20024;-69
2021/12/14 05:58:21;;;;;;;22.30;11.82;;;7.90;99.90;;;;;;5093500;28;20052;-69
2021/12/14 06:01:08;;;;;;;22.48;12.63;;;7.90;99.90;;;;;;5093636;28;20111;-69
2021/12/14 06:03:50;;;;;;;22.30;12.25;;;7.80;99.90;;;;;;5074592;28;20020;-67
2021/12/14 06:06:20;;;;;;;24.83;13.77;;;7.90;99.90;;;;;;5093591;28;20026;-69
2021/12/14 06:08:46;;;;;;;23.48;13.25;;;7.80;99.90;;;;;;5094230;28;20025;-69
2021/12/14 06:11:25;;;;;;;25.98;13.90;;;7.80;99.90;;;;;;5093532;28;20051;-69
2021/12/14 06:13:53;;;;;;;23.52;13.73;;;7.90;99.90;;;;;;5074793;28;20034;-68
2021/12/14 06:16:29;;;;;;;22.95;13.63;;;7.90;99.90;;;;;;5075258;28;20043;-69
2021/12/14 06:19:17;;;;;;;24.85;14.20;;;7.90;99.90;;;;;;5075232;28;20028;-69
2021/12/14 06:21:44;;;;;;;22.63;13.57;;;7.90;99.90;;;;;;5074648;28;20027;-69
2021/12/14 06:24:10;;;;;;;23.30;13.13;;;7.90;99.90;;;;;;5093320;28;20036;-69
2021/12/14 06:26:45;;;;;;;22.73;13.02;;;7.90;99.90;;;;;;5093101;28;20047;-69
2021/12/14 06:29:18;;;;;;;23.80;13.27;;;7.90;99.90;;;;;;5073763;28;20024;-69
2021/12/14 06:31:44;;;;;;;25.67;14.80;;;7.80;99.90;;;;;;5073829;28;20106;-69
2021/12/14 06:34:20;;;;;;;25.25;14.55;;;7.90;99.90;;;;;;5092876;28;20032;-69
2021/12/14 06:36:51;;;;;;;26.73;14.15;;;7.80;99.90;;;;;;5074994;28;20046;-74
2021/12/14 06:39:18;;;;;;;24.00;13.13;;;7.80;99.90;;;;;;5092556;28;20107;-68
2021/12/14 06:41:44;;;;;;;24.47;14.00;;;7.90;99.90;;;;;;5074004;28;20028;-70
2021/12/14 06:44:10;;;;;;;24.90;14.25;;;7.80;99.90;;;;;;5074746;28;20031;-69
2021/12/14 06:46:40;;;;;;;24.33;14.15;;;7.80;99.90;;;;;;5092788;28;20035;-69
2021/12/14 06:49:06;;;;;;;25.17;14.23;;;7.90;99.90;;;;;;5074525;28;20027;-68
2021/12/14 06:51:42;;;;;;;26.42;14.95;;;7.90;99.90;;;;;;5080331;28;20756;-66
2021/12/14 06:54:16;;;;;;;26.17;13.77;;;7.90;99.90;;;;;;5054006;28;20031;-69
2021/12/14 06:56:42;;;;;;;27.10;15.15;;;7.90;99.90;;;;;;5071846;28;20098;-67
2021/12/14 06:59:12;;;;;;;35.28;14.85;;;7.90;99.90;;;;;;5071657;28;20029;-69
2021/12/14 07:01:41;;;;;;;29.58;14.65;;;7.90;99.90;;;;;;5053369;28;20113;-67
2021/12/14 07:04:13;;;;;;;27.63;16.58;;;7.90;99.90;;;;;;5071631;28;20025;-72
2021/12/14 07:06:42;;;;;;;26.50;14.00;;;7.80;99.90;;;;;;5074736;28;20014;-69
2021/12/14 07:09:09;;;;;;;27.98;15.70;;;7.80;99.90;;;;;;5091884;28;20499;-68
2021/12/14 07:11:37;;;;;;;30.00;16.38;;;7.90;99.90;;;;;;5073256;28;20032;-68
2021/12/14 07:14:18;;;;;;;27.48;15.27;;;7.80;99.90;;;;;;5092129;28;20052;-69
2021/12/14 07:16:47;;;;;;;30.10;16.52;;;7.80;99.90;;;;;;5092126;28;20024;-69
2021/12/14 07:19:13;;;;;;;27.45;14.63;;;7.80;99.90;;;;;;5073770;28;20446;-69
2021/12/14 07:21:47;;;;;;;28.17;15.80;;;7.80;99.90;;;;;;5091711;28;20437;-70
2021/12/14 07:24:22;;;;;;;31.35;16.02;;;7.80;99.90;;;;;;5094548;22;20572;-70
2021/12/14 07:26:50;;;;;;;29.00;16.20;;;7.80;99.90;;;;;;5074951;28;20020;-70
2021/12/14 07:29:23;;;;;;;25.60;14.75;;;7.80;99.90;;;;;;5056521;28;20024;-71
2021/12/14 07:31:48;;;;;;;30.40;16.00;;;7.80;99.90;;;;;;5054059;28;20055;-73
2021/12/14 07:34:14;;;;;;;30.48;16.13;;;7.80;99.90;;;;;;5054922;28;20036;-72
2021/12/14 07:36:41;;;;;;;31.27;16.90;;;7.80;99.90;;;;;;5054707;28;20079;-70
2021/12/14 07:39:14;;;;;;;33.95;16.05;;;7.80;99.90;;;;;;5072478;28;20035;-71
2021/12/14 07:41:44;;;;;;;27.67;15.73;;;7.80;99.90;;;;;;5053864;28;20020;-70
2021/12/14 07:44:23;;;;;;;28.52;15.23;;;7.80;99.90;;;;;;5054972;28;20020;-70
2021/12/14 07:46:52;;;;;;;30.15;16.65;;;7.80;99.90;;;;;;5064805;28;20060;-69
2021/12/14 07:49:29;;;;;;;32.00;16.52;;;7.80;99.90;;;;;;5073383;28;20395;-70
2021/12/14 07:52:03;;;;;;;30.00;16.10;;;7.90;99.90;;;;;;5080777;28;20028;-70
2021/12/14 07:54:32;;;;;;;30.83;18.08;;;7.90;99.90;;;;;;5093241;28;20016;-71
2021/12/14 07:57:10;;;;;;;31.17;17.30;;;7.90;99.90;;;;;;5092844;28;20150;-70
2021/12/14 07:59:40;;;;;;;30.25;15.80;;;8.00;99.90;;;;;;5093080;28;20496;-69
2021/12/14 08:02:17;;;;;;;30.98;17.75;;;8.00;99.90;;;;;;5074442;28;20043;-70
2021/12/14 08:04:59;;;;;;;30.33;15.52;;;8.00;99.90;;;;;;5075108;28;20027;-70
2021/12/14 08:07:28;;;;;;;33.50;19.10;;;8.00;99.90;;;;;;5092401;28;20107;-69
2021/12/14 08:10:05;;;;;;;29.40;15.52;;;7.90;99.90;;;;;;5075072;28;20063;-70
2021/12/14 08:12:37;;;;;;;34.08;17.77;;;7.90;99.90;;;;;;5091865;28;20103;-68
2021/12/14 08:15:12;;;;;;;35.90;18.85;;;7.80;99.90;;;;;;5074431;28;20038;-70
2021/12/14 08:17:38;;;;;;;33.20;18.33;;;7.90;99.90;;;;;;5093102;28;20079;-69
2021/12/14 08:20:21;;;;;;;33.00;18.25;;;7.90;99.90;;;;;;5075501;28;20020;-69
2021/12/14 08:22:47;;;;;;;31.70;17.17;;;7.80;99.90;;;;;;5073752;28;20046;-69
2021/12/14 08:25:15;;;;;;;31.42;16.25;;;7.90;99.90;;;;;;5074455;28;20119;-70
2021/12/14 08:27:42;;;;;;;;;;;7.90;99.90;;;;;;5092991;28;20024;-70
2021/12/14 08:30:13;;;;;;;32.45;15.48;;;7.80;99.90;;;;;;5075219;28;19947;-69
2021/12/14 08:32:41;;;;;;;32.25;17.45;;;7.80;99.90;;;;;;5071411;28;20021;-69
2021/12/14 08:35:13;;;;;;;37.08;17.73;;;7.80;99.90;;;;;;5054366;28;20120;-69
2021/12/14 08:37:43;;;;;;;35.90;18.45;;;7.80;99.90;;;;;;5073692;28;20373;-69
2021/12/14 08:40:31;;;;;;;33.17;18.17;;;7.90;99.90;;;;;;5072591;28;20082;-69
2021/12/14 08:43:08;;;;;;;33.38;16.98;;;7.90;99.90;;;;;;5053538;28;20035;-69
2021/12/14 08:45:39;;;;;;;30.02;16.27;;;7.90;99.90;;;;;;5053966;28;20032;-69
2021/12/14 08:48:21;;;;;;;32.15;17.30;;;7.90;99.90;;;;;;5054491;28;20025;-69
2021/12/14 08:50:56;;;;;;;32.35;18.25;;;7.90;99.90;;;;;;5054499;28;20043;-70
2021/12/14 08:53:25;;;;;;;34.17;18.58;;;7.90;99.90;;;;;;5095165;28;20069;-69
2021/12/14 08:55:55;;;;;;;32.80;18.15;;;7.90;99.90;;;;;;5096078;28;20020;-69
2021/12/14 08:58:21;;;;;;;32.17;17.33;;;7.90;99.90;;;;;;5078537;28;20479;-69
2021/12/14 09:00:50;;;;;;;34.85;19.45;;;7.90;99.90;;;;;;5096321;28;20060;-68
2021/12/14 09:03:30;;;;;;;36.75;18.70;;;7.90;99.90;;;;;;5095163;28;20027;-68
2021/12/14 09:05:57;;;;;;;33.60;17.75;;;7.90;99.90;;;;;;5096019;28;20085;-68
2021/12/14 09:08:22;;;;;;;35.30;17.85;;;7.90;99.90;;;;;;5095862;28;20024;-68
2021/12/14 09:10:51;;;;;;;35.33;20.45;;;7.90;99.90;;;;;;5078352;28;20026;-71
2021/12/14 09:13:20;;;;;;;34.50;19.33;;;7.90;99.90;;;;;;5077021;28;20024;-72
2021/12/14 09:15:52;;;;;;;33.97;18.58;;;8.00;99.90;;;;;;5078536;28;20032;-70
2021/12/14 09:18:19;;;;;;;34.58;18.33;;;8.00;99.90;;;;;;5096266;28;20376;-71
2021/12/14 09:20:59;;;;;;;31.55;17.75;;;8.10;99.90;;;;;;5077803;28;20020;-70
2021/12/14 09:23:38;;;;;;;33.30;18.27;;;8.10;99.90;;;;;;5077005;28;20024;-72
2021/12/14 09:26:10;;;;;;;34.20;18.88;;;8.20;99.90;;;;;;5078100;28;20024;-71
2021/12/14 09:28:36;;;;;;;32.72;17.88;;;8.20;99.90;;;;;;5096519;28;20056;-71
2021/12/14 09:31:05;;;;;;;34.40;18.05;;;8.20;99.90;;;;;;5077787;28;20031;-71
2021/12/14 09:33:31;;;;;;;35.67;18.42;;;8.20;99.90;;;;;;5094931;28;20136;-69
2021/12/14 09:35:58;;;;;;;36.70;19.73;;;8.30;99.90;;;;;;5075542;28;20119;-70
2021/12/14 09:38:32;;;;;;;35.63;20.25;;;8.30;99.90;;;;;;5075453;28;20392;-71
2021/12/14 09:41:04;;;;;;;35.95;20.10;;;8.30;99.90;;;;;;5057489;28;20021;-71
2021/12/14 09:43:30;;;;;;;32.20;17.88;;;8.30;99.90;;;;;;5056643;28;20044;-71
2021/12/14 09:45:58;;;;;;;36.85;18.73;;;8.40;99.90;;;;;;5057067;28;20495;-70
2021/12/14 09:48:40;;;;;;;30.35;17.33;;;8.40;99.90;;;;;;5060212;28;20035;-71
2021/12/14 09:51:11;;;;;;;34.75;18.75;;;8.50;99.90;;;;;;5056979;28;20032;-71
2021/12/14 09:53:42;;;;;;;35.38;17.95;;;8.50;99.90;;;;;;5056526;28;20024;-69
2021/12/14 09:56:13;;;;;;;34.28;18.00;;;8.50;99.90;;;;;;5075012;28;20028;-70
2021/12/14 09:58:43;;;;;;;35.78;19.08;;;8.40;99.90;;;;;;5056993;28;20392;-71
2021/12/14 10:01:16;;;;;;;37.28;19.90;;;8.40;99.90;;;;;;5057014;28;20024;-72
2021/12/14 10:03:47;;;;;;;35.75;19.33;;;8.40;99.90;;;;;;5074440;28;20025;-71
2021/12/14 10:06:18;;;;;;;38.45;19.80;;;8.40;99.90;;;;;;5057085;28;20066;-71
2021/12/14 10:08:52;;;;;;;34.88;18.67;;;8.40;99.90;;;;;;5057191;28;20024;-71
2021/12/14 10:11:40;;;;;;;32.78;18.55;;;8.50;99.90;;;;;;5075091;28;20048;-71
2021/12/14 10:14:08;;;;;;;33.90;18.95;;;8.50;99.90;;;;;;5056548;28;20035;-71
2021/12/14 10:16:34;;;;;;;34.20;20.17;;;8.50;99.90;;;;;;5056822;28;20485;-71
2021/12/14 10:19:09;;;;;;;35.88;17.83;;;8.50;99.90;;;;;;5074479;28;20029;-71
2021/12/14 10:21:43;;;;;;;34.75;18.70;;;8.50;99.90;;;;;;5092216;28;20047;-70
2021/12/14 10:24:10;;;;;;;35.17;18.52;;;8.60;99.90;;;;;;5076662;28;20028;-72
2021/12/14 10:26:38;;;;;;;35.03;17.90;;;;;;;;;;5076447;28;20020;-69
2021/12/14 10:29:04;;;;;;;;;;;8.60;99.90;;;;;;5095034;28;20020;-71
2021/12/14 10:31:43;;;;;;;34.83;19.45;;;8.70;99.90;;;;;;5094291;28;19904;-69
2021/12/14 10:34:14;;;;;;;38.83;19.60;;;8.70;99.90;;;;;;5076799;28;20034;-71
2021/12/14 10:36:44;;;;;;;35.85;18.92;;;8.70;99.90;;;;;;5095035;28;20024;-70
2021/12/14 10:44:57;;;;;;;38.17;19.15;;;8.70;99.90;;;;;;5094084;28;20027;-67
2021/12/14 10:47:27;;;;;;;33.25;17.95;;;8.80;99.90;;;;;;5075468;28;20028;-68
2021/12/14 10:49:55;;;;;;;36.17;18.85;;;8.80;99.90;;;;;;5065723;28;20103;-68
2021/12/14 10:52:25;;;;;;;32.63;17.42;;;8.90;99.90;;;;;;5067670;28;20407;-68
2021/12/14 10:55:04;;;;;;;33.47;18.13;;;8.80;99.90;;;;;;5073034;28;20028;-69
2021/12/14 10:57:31;;;;;;;36.00;20.05;;;8.80;99.90;;;;;;5072682;28;20032;-67
2021/12/14 10:59:57;;;;;;;41.90;20.03;;;8.80;99.90;;;;;;5071395;28;20078;-68
2021/12/14 11:02:26;;;;;;;36.85;19.38;;;8.80;99.90;;;;;;5071295;28;20112;-68
2021/12/14 11:04:56;;;;;;;34.88;18.60;;;8.80;99.90;;;;;;5064374;28;20481;-68
2021/12/14 11:07:46;;;;;;;34.00;17.27;;;8.80;99.90;;;;;;5067803;28;20051;-68
2021/12/14 11:10:20;;;;;;;36.53;19.75;;;8.80;99.90;;;;;;5090890;28;20024;-68
2021/12/14 11:12:49;;;;;;;36.97;20.13;;;8.80;99.90;;;;;;5076480;28;20027;-68
2021/12/14 11:15:44;;;;;;;38.90;19.45;;;8.80;99.90;;;;;;5085875;28;20119;-67
2021/12/14 11:18:17;;;;;;;35.45;19.80;;;8.70;99.90;;;;;;5069576;28;20063;-68
2021/12/14 11:20:48;;;;;;;37.97;18.85;;;8.80;99.90;;;;;;5086078;28;20020;-68
2021/12/14 11:23:34;;;;;;;39.22;21.88;;;8.80;99.90;;;;;;5063969;28;20028;-68
2021/12/14 11:26:35;;;;;;;39.08;20.42;;;8.80;99.90;;;;;;5055598;28;20020;-68
2021/12/14 11:29:10;;;;;;;39.42;21.17;;;8.90;99.90;;;;;;5050071;28;20040;-67
2021/12/14 11:31:43;;;;;;;34.70;19.42;;;8.80;99.90;;;;;;5074587;28;20131;-67
2021/12/14 11:34:13;;;;;;;34.58;19.17;;;8.80;99.90;;;;;;5074593;28;20031;-68
2021/12/14 11:36:46;;;;;;;36.35;20.08;;;8.80;99.90;;;;;;5074655;28;20089;-68
2021/12/14 11:39:23;;;;;;;36.72;18.92;;;8.80;99.90;;;;;;5075017;28;20036;-67
2021/12/14 11:41:59;;;;;;;40.77;19.80;;;8.80;99.90;;;;;;5092341;28;20028;-68
2021/12/14 11:44:35;;;;;;;36.38;18.15;;;8.80;99.90;;;;;;5074342;28;20407;-68
2021/12/14 11:50:13;;;;;;;40.83;22.40;;;8.70;99.90;;;;;;5092878;28;20348;-66
2021/12/14 11:53:03;;;;;;;37.70;20.65;;;8.80;99.90;;;;;;5073530;28;20031;-66
2021/12/14 11:55:41;;;;;;;36.33;20.02;;;8.80;99.90;;;;;;5092591;28;20099;-68
2021/12/14 11:58:27;;;;;;;41.30;20.30;;;8.80;99.90;;;;;;5092889;28;20032;-69
2021/12/14 12:01:11;;;;;;;38.17;19.77;;;8.80;99.90;;;;;;5074479;28;20032;-69
2021/12/14 12:04:00;;;;;;;43.35;21.98;;;8.70;99.90;;;;;;5091857;28;20399;-68
2021/12/14 12:09:38;;;;;;;39.35;20.40;;;8.80;99.90;;;;;;5092624;28;20024;-68
2021/12/14 12:12:04;;;;;;;39.95;21.30;;;8.80;99.90;;;;;;5091995;28;20020;-69
2021/12/14 12:14:54;;;;;;;40.95;20.15;;;8.90;99.90;;;;;;5074392;28;20437;-68
2021/12/14 12:17:48;;;;;;;36.83;19.92;;;8.90;99.90;;;;;;5074475;28;20020;-68
2021/12/14 12:20:23;;;;;;;39.25;21.23;;;8.90;99.90;;;;;;5092543;28;20024;-69
2021/12/14 12:23:07;;;;;;;39.15;19.58;;;8.90;99.90;;;;;;5073253;28;20032;-67
2021/12/14 12:25:46;;;;;;;40.08;21.17;;;8.80;99.90;;;;;;5092526;28;20027;-68
2021/12/14 12:28:18;;;;;;;39.97;20.70;;;8.80;99.90;;;;;;5096619;28;20012;-69
2021/12/14 12:30:52;;;;;;;37.33;21.02;;;8.90;99.90;;;;;;5096760;28;20048;-69
2021/12/14 12:33:28;;;;;;;39.10;21.83;;;8.90;99.90;;;;;;5076325;28;20020;-69
2021/12/14 12:36:05;;;;;;;37.38;20.10;;;8.90;99.90;;;;;;5078056;28;20020;-69
2021/12/14 12:38:34;;;;;;;41.40;22.27;;;8.90;99.90;;;;;;5079570;28;20024;-68
2021/12/14 12:41:03;;;;;;;40.45;22.13;;;8.90;99.90;;;;;;5079437;28;20272;-68
2021/12/14 12:43:41;;;;;;;40.40;21.48;;;8.90;99.90;;;;;;5096395;28;20102;-68
2021/12/14 12:46:17;;;;;;;39.47;22.23;;;8.90;99.90;;;;;;5080206;28;20028;-69
2021/12/14 12:48:49;;;;;;;39.92;21.17;;;9.00;99.90;;;;;;5096115;28;20106;-67
2021/12/14 12:51:37;;;;;;;37.25;20.08;;;9.10;99.90;;;;;;5077592;28;20028;-69
2021/12/14 12:54:14;;;;;;;39.65;19.83;;;9.00;99.90;;;;;;5096111;28;20031;-69
2021/12/14 12:56:46;;;;;;;40.70;22.52;;;9.10;99.90;;;;;;5098749;28;20081;-67
2021/12/14 12:59:16;;;;;;;43.60;21.55;;;9.10;99.90;;;;;;5097898;28;20065;-69
2021/12/14 13:01:42;;;;;;;37.72;21.63;;;9.00;99.90;;;;;;5096967;28;20020;-68
2021/12/14 13:04:07;;;;;;;42.75;22.17;;;9.00;99.90;;;;;;5096358;28;20024;-68
2021/12/14 13:06:33;;;;;;;40.15;22.38;;;9.00;99.90;;;;;;5077138;28;20059;-68
2021/12/14 13:09:00;;;;;;;39.85;22.35;;;9.00;99.90;;;;;;5087228;28;20016;-68
2021/12/14 13:11:36;;;;;;;40.72;22.92;;;9.00;99.90;;;;;;5063656;28;20929;-69
2021/12/14 13:14:09;;;;;;;41.35;21.02;;;9.10;99.90;;;;;;5066122;28;20024;-69
2021/12/14 13:16:37;;;;;;;45.53;22.35;;;9.20;99.90;;;;;;5081969;28;20028;-67
2021/12/14 13:19:13;;;;;;;41.67;23.63;;;9.20;99.90;;;;;;5077216;28;20110;-68
2021/12/14 13:21:57;;;;;;;42.90;21.02;;;9.30;99.90;;;;;;5060782;28;20021;-68
2021/12/14 13:24:27;;;;;;;40.47;22.13;;;9.20;99.90;;;;;;5105165;22;20081;-70
2021/12/14 13:26:58;;;;;;;39.88;21.17;;;9.20;99.90;;;;;;5076364;28;20028;-69
2021/12/14 13:29:32;;;;;;;39.33;21.20;;;9.10;99.90;;;;;;5076224;28;20122;-70
2021/12/14 13:32:10;;;;;;;38.00;21.15;;;9.10;99.90;;;;;;5075639;28;20031;-71
2021/12/14 13:34:41;;;;;;;42.28;23.63;;;9.10;99.90;;;;;;5095402;28;20074;-71
2021/12/14 13:37:09;;;;;;;37.88;22.92;;;9.10;99.90;;;;;;5075435;28;20044;-71
2021/12/14 13:39:37;;;;;;;38.83;20.38;;;9.10;99.90;;;;;;5074622;28;20138;-71
2021/12/14 13:42:18;;;;;;;37.28;21.30;;;9.10;99.90;;;;;;5088962;28;20472;-69